createdAt,value
2022-11-16T00:46:05.821Z,48.83
2022-11-16T00:48:35.741Z,49.05
2022-11-16T00:51:04.490Z,47.42
2022-11-16T00:53:33.472Z,47.30
2022-11-16T00:56:01.943Z,47.80
2022-11-16T00:58:33.288Z,49.08
2022-11-16T01:47:57.363Z,43.92
2022-11-16T01:50:31.966Z,40.42
2022-11-16T01:53:05.379Z,41.60
2022-11-16T01:55:43.503Z,39.47
2022-11-16T01:58:24.105Z,38.10
2022-11-16T02:48:35.753Z,34.58
2022-11-16T02:51:07.279Z,34.92
2022-11-16T02:53:51.722Z,36.40
2022-11-16T02:56:21.904Z,34.35
2022-11-16T02:58:50.522Z,35.03
2022-11-16T03:48:23.198Z,28.70
2022-11-16T03:50:52.724Z,29.67
2022-11-16T03:53:21.919Z,29.48
2022-11-16T03:55:50.232Z,30.27
2022-11-16T03:58:19.013Z,32.20
2022-11-16T04:48:12.799Z,26.83
2022-11-16T04:50:42.846Z,27.58
2022-11-16T04:53:11.978Z,24.90
2022-11-16T04:55:51.109Z,24.73
2022-11-16T04:58:21.607Z,26.30
2022-11-16T05:33:01.462Z,25.27
2022-11-16T05:35:32.742Z,25.38
2022-11-16T05:38:02.391Z,24.70
2022-11-16T05:40:33.133Z,23.85
2022-11-16T05:43:02.523Z,23.58
2022-11-16T05:45:35.430Z,24.83
2022-11-16T05:48:05.395Z,22.10
2022-11-16T05:50:36.319Z,21.38
2022-11-16T05:53:14.205Z,21.15
2022-11-16T05:55:43.293Z,20.55
2022-11-16T05:58:11.763Z,20.40
2022-11-16T06:00:40.100Z,21.25
2022-11-16T06:03:13.296Z,21.27
2022-11-16T06:05:42.601Z,20.88
2022-11-16T06:08:13.749Z,22.17
2022-11-16T06:10:42.285Z,20.92
2022-11-16T06:13:10.681Z,21.98
2022-11-16T06:15:40.833Z,21.58
2022-11-16T06:18:12.593Z,19.60
2022-11-16T06:20:41.995Z,22.02
2022-11-16T06:23:11.123Z,19.48
2022-11-16T06:25:40.712Z,21.40
2022-11-16T06:28:09.322Z,21.05
2022-11-16T06:30:39.442Z,19.73
2022-11-16T06:33:08.834Z,21.23
2022-11-16T06:35:39.910Z,19.70
2022-11-16T06:38:09.048Z,22.38
2022-11-16T06:40:39.236Z,22.45
2022-11-16T06:43:07.590Z,25.25
2022-11-16T06:45:36.014Z,21.42
2022-11-16T06:48:04.684Z,24.67
2022-11-16T06:50:33.936Z,23.98
2022-11-16T06:53:03.631Z,21.63
2022-11-16T06:55:32.869Z,22.00
2022-11-16T06:58:01.239Z,24.58
2022-11-16T07:00:29.974Z,27.80
2022-11-16T07:02:58.501Z,26.60
2022-11-16T07:05:26.810Z,24.83
2022-11-16T07:07:56.440Z,28.85
2022-11-16T07:10:27.592Z,28.25
2022-11-16T07:12:56.070Z,26.45
2022-11-16T07:15:25.386Z,28.20
2022-11-16T07:17:53.724Z,24.55
2022-11-16T07:20:22.813Z,27.75
2022-11-16T07:22:51.994Z,22.80
2022-11-16T07:25:20.356Z,25.10
2022-11-16T07:27:50.333Z,21.45
2022-11-16T07:30:19.577Z,23.20
2022-11-16T07:33:09.026Z,22.85
2022-11-16T07:36:03.414Z,22.50
2022-11-16T07:38:33.570Z,22.45
2022-11-16T07:41:02.462Z,22.55
2022-11-16T07:43:36.923Z,22.48
2022-11-16T07:46:45.354Z,21.77
2022-11-16T07:49:15.230Z,22.52
2022-11-16T07:51:52.068Z,22.90
2022-11-16T07:54:36.733Z,20.88
2022-11-16T07:57:05.616Z,20.20
2022-11-16T07:59:36.160Z,20.00
2022-11-16T08:02:06.237Z,21.00
2022-11-16T08:04:34.883Z,20.65
2022-11-16T08:07:04.436Z,21.95
2022-11-16T08:09:38.030Z,22.50
2022-11-16T08:12:07.425Z,17.70
2022-11-16T08:14:37.552Z,19.75
2022-11-16T08:17:07.246Z,19.15
2022-11-16T08:19:36.580Z,18.73
2022-11-16T08:22:05.272Z,18.67
2022-11-16T08:24:35.880Z,18.58
2022-11-16T08:27:04.486Z,19.23
2022-11-16T08:29:33.939Z,18.00
2022-11-16T08:32:05.890Z,19.27
2022-11-16T08:34:36.186Z,18.17
2022-11-16T08:37:07.559Z,17.00
2022-11-16T08:39:40.635Z,18.35
2022-11-16T08:42:10.649Z,19.85
2022-11-16T08:44:40.510Z,15.75
2022-11-16T08:47:16.389Z,16.88
2022-11-16T08:49:54.700Z,17.88
2022-11-16T08:52:25.504Z,18.30
2022-11-16T08:54:55.335Z,16.25
2022-11-16T08:57:23.721Z,17.30
2022-11-16T08:59:57.581Z,18.70
2022-11-16T09:02:27.248Z,17.75
2022-11-16T09:04:55.558Z,15.57
2022-11-16T09:07:23.997Z,16.08
2022-11-16T09:09:52.319Z,17.20
2022-11-16T09:12:20.894Z,18.95
2022-11-16T09:14:49.212Z,19.10
2022-11-16T09:17:22.802Z,15.25
2022-11-16T09:19:52.942Z,17.70
2022-11-16T09:22:21.227Z,16.17
2022-11-16T09:24:49.597Z,15.93
2022-11-16T09:27:17.929Z,18.55
2022-11-16T09:29:46.381Z,18.60
2022-11-16T09:32:14.665Z,18.85
2022-11-16T09:34:43.057Z,17.65
2022-11-16T09:37:12.654Z,15.75
2022-11-16T09:39:41.166Z,18.45
2022-11-16T09:42:31.863Z,16.63
2022-11-16T09:45:04.945Z,15.85
2022-11-16T09:47:49.022Z,15.55
2022-11-16T09:50:40.997Z,15.98
2022-11-16T09:53:37.428Z,16.42
2022-11-16T09:56:10.421Z,16.30
2022-11-16T09:58:49.073Z,18.30
2022-11-16T10:01:28.302Z,15.93
2022-11-16T10:04:03.016Z,17.00
2022-11-16T10:06:47.204Z,17.52
2022-11-16T10:09:17.049Z,14.95
2022-11-16T10:11:59.910Z,15.60
2022-11-16T10:15:01.660Z,17.23
2022-11-16T10:17:47.055Z,14.82
2022-11-16T10:20:51.197Z,15.90
2022-11-16T10:23:36.785Z,14.65
2022-11-16T10:26:21.621Z,15.93
2022-11-16T10:29:19.691Z,14.30
2022-11-16T10:32:15.290Z,13.68
2022-11-16T10:34:52.849Z,13.30
2022-11-16T10:37:22.127Z,17.42
2022-11-16T10:39:54.184Z,13.63
2022-11-16T10:42:32.275Z,13.82
2022-11-16T10:45:12.725Z,14.48
2022-11-16T10:47:47.022Z,11.50
2022-11-16T10:50:33.710Z,13.80
2022-11-16T10:53:02.505Z,13.80
2022-11-16T10:55:30.848Z,14.55
2022-11-16T10:58:03.067Z,14.15
2022-11-16T11:00:48.986Z,14.05
2022-11-16T11:03:32.587Z,12.10
2022-11-16T11:06:01.635Z,12.45
2022-11-16T11:08:32.176Z,13.10
2022-11-16T11:11:20.159Z,13.10
2022-11-16T11:14:05.864Z,14.52
2022-11-16T11:16:34.221Z,12.95
2022-11-16T11:19:25.516Z,12.88
2022-11-16T11:21:58.480Z,12.50
2022-11-16T11:24:44.100Z,12.02
2022-11-16T11:27:13.304Z,11.85
2022-11-16T11:29:44.341Z,13.43
2022-11-16T11:32:22.371Z,14.02
2022-11-16T11:34:54.829Z,12.95
2022-11-16T11:37:26.500Z,12.93
2022-11-16T11:40:18.215Z,11.52
2022-11-16T11:42:56.889Z,14.05
2022-11-16T11:45:35.586Z,10.70
2022-11-16T11:48:08.235Z,12.68
2022-11-16T11:50:45.359Z,12.40
2022-11-16T11:53:30.059Z,12.60
2022-11-16T11:56:00.663Z,11.13
2022-11-16T11:58:34.207Z,12.05
2022-11-16T12:01:48.175Z,11.85
2022-11-16T12:04:58.510Z,11.27
2022-11-16T12:08:20.286Z,11.18
2022-11-16T12:10:52.906Z,13.13
2022-11-16T12:13:55.177Z,11.55
2022-11-16T12:16:33.385Z,11.05
2022-11-16T12:19:28.817Z,11.23
2022-11-16T12:22:11.980Z,11.38
2022-11-16T12:24:57.994Z,12.05
2022-11-16T12:27:36.366Z,11.48
2022-11-16T12:30:12.104Z,10.00
2022-11-16T12:33:15.083Z,9.68
2022-11-16T12:35:54.038Z,11.00
2022-11-16T12:38:45.491Z,11.13
2022-11-16T12:41:46.769Z,10.52
2022-11-16T12:44:22.369Z,11.10
2022-11-16T12:47:03.750Z,10.88
2022-11-16T12:50:01.172Z,10.18
2022-11-16T12:53:03.871Z,10.23
2022-11-16T12:55:42.496Z,9.90
2022-11-16T12:58:21.413Z,11.38
2022-11-16T13:01:02.586Z,9.75
2022-11-16T13:03:40.138Z,9.75
2022-11-16T13:06:16.183Z,9.27
2022-11-16T13:08:57.355Z,9.52
2022-11-16T13:11:31.109Z,9.93
2022-11-16T13:14:05.494Z,9.77
2022-11-16T13:16:35.226Z,8.95
2022-11-16T13:19:08.047Z,10.43
2022-11-16T13:21:46.337Z,9.35
2022-11-16T13:24:46.764Z,9.88
2022-11-16T13:27:29.064Z,10.98
2022-11-16T13:30:05.015Z,9.77
2022-11-16T13:32:53.640Z,9.25
2022-11-16T13:35:23.076Z,9.80
2022-11-16T13:37:52.700Z,9.70
2022-11-16T13:40:29.593Z,9.65
2022-11-16T13:43:16.727Z,10.32
2022-11-16T13:45:58.331Z,8.32
2022-11-16T13:48:34.405Z,9.20
2022-11-16T13:51:05.942Z,9.88
2022-11-16T13:56:29.489Z,8.52
2022-11-16T13:58:59.809Z,8.18
2022-11-16T14:01:57.814Z,8.25
2022-11-16T14:04:43.353Z,9.18
2022-11-16T14:07:32.811Z,11.07
2022-11-16T14:10:01.945Z,8.77
2022-11-16T14:13:09.286Z,9.18
2022-11-16T14:15:38.815Z,9.20
2022-11-16T14:18:39.668Z,8.18
2022-11-16T14:21:24.720Z,8.80
2022-11-16T14:24:12.176Z,8.45
2022-11-16T14:26:57.482Z,8.00
2022-11-16T14:29:58.080Z,8.05
2022-11-16T14:32:31.563Z,8.10
2022-11-16T14:35:04.112Z,8.60
2022-11-16T14:37:36.414Z,7.97
2022-11-16T14:40:11.270Z,9.05
2022-11-16T14:43:15.462Z,7.82
2022-11-16T14:45:40.614Z,8.20
2022-11-16T14:48:17.919Z,9.48
2022-11-16T14:51:01.300Z,7.88
2022-11-16T14:53:36.355Z,8.60
2022-11-16T14:56:11.725Z,9.30
2022-11-16T14:58:40.339Z,7.75
2022-11-16T15:01:15.139Z,8.63
2022-11-16T15:03:52.779Z,7.07
2022-11-16T15:06:23.802Z,7.85
2022-11-16T15:08:57.976Z,8.40
2022-11-16T15:11:49.173Z,7.82
2022-11-16T15:14:22.038Z,8.13
2022-11-16T15:16:52.209Z,7.88
2022-11-16T15:19:21.558Z,7.78
2022-11-16T15:21:56.896Z,8.90
2022-11-16T15:24:32.051Z,11.18
2022-11-16T15:27:13.213Z,11.60
2022-11-16T15:29:41.926Z,9.05
2022-11-16T15:32:17.390Z,7.95
2022-11-16T15:34:52.674Z,9.60
2022-11-16T15:37:30.263Z,10.13
2022-11-16T15:40:00.010Z,11.60
2022-11-16T15:42:29.378Z,7.82
2022-11-16T15:45:01.045Z,10.30
2022-11-16T15:47:31.054Z,9.32
2022-11-16T15:49:59.399Z,7.50
2022-11-16T15:52:46.014Z,7.97
2022-11-16T15:55:38.584Z,8.63
2022-11-16T15:58:25.668Z,8.77
2022-11-16T16:00:55.497Z,8.45
2022-11-16T16:03:27.268Z,7.20
2022-11-16T16:05:57.878Z,7.60
2022-11-16T16:08:34.961Z,9.52
2022-11-16T16:11:11.150Z,9.20
2022-11-16T16:13:42.590Z,8.65
2022-11-16T16:16:31.455Z,7.50
2022-11-16T16:19:08.356Z,7.75
2022-11-16T16:21:47.272Z,9.23
2022-11-16T16:24:43.195Z,7.55
2022-11-16T16:27:20.430Z,10.52
2022-11-16T16:29:50.768Z,10.13
2022-11-16T16:32:27.859Z,10.93
2022-11-16T16:34:58.081Z,11.45
2022-11-16T16:37:29.416Z,10.05
2022-11-16T16:39:59.716Z,10.98
2022-11-16T16:42:28.661Z,8.98
2022-11-16T16:44:59.747Z,8.20
2022-11-16T16:47:28.048Z,9.48
2022-11-16T16:49:56.392Z,7.75
2022-11-16T16:52:24.712Z,7.18
2022-11-16T16:54:53.077Z,9.68
2022-11-16T16:57:22.957Z,8.77
2022-11-16T16:59:51.611Z,8.45
2022-11-16T17:02:20.368Z,9.13
2022-11-16T17:04:48.954Z,7.45
2022-11-16T17:07:17.694Z,13.02
2022-11-16T17:09:46.224Z,9.05
2022-11-16T17:12:14.764Z,7.55
2022-11-16T17:14:51.508Z,8.63
2022-11-16T17:17:20.376Z,8.23
2022-11-16T17:19:49.330Z,8.85
2022-11-16T17:22:17.948Z,8.05
2022-11-16T17:24:46.492Z,10.15
2022-11-16T17:27:15.233Z,8.48
2022-11-16T17:29:45.013Z,7.88
2022-11-16T17:32:13.343Z,9.18
2022-11-16T17:34:41.643Z,8.55
2022-11-16T17:37:10.421Z,6.75
2022-11-16T17:39:40.531Z,1999.90
2022-11-16T17:42:08.911Z,1383.97
2022-11-16T17:44:37.356Z,1238.15
2022-11-16T17:47:07.406Z,1148.22
2022-11-16T17:49:35.880Z,1131.05
2022-11-16T17:52:05.180Z,1100.93
2022-11-16T17:54:33.706Z,1087.20
2022-11-16T17:57:02.247Z,1068.10
2022-11-16T17:59:30.645Z,1093.68
2022-11-16T18:01:59.035Z,1048.45
2022-11-16T18:04:28.724Z,1003.60
2022-11-16T18:06:57.166Z,1345.60
2022-11-16T18:09:28.283Z,1229.47
2022-11-16T18:11:58.817Z,1181.95
2022-11-16T18:14:27.899Z,1158.18
2022-11-16T18:16:57.461Z,1114.00
2022-11-16T18:19:28.982Z,1087.55
2022-11-16T18:21:57.358Z,1051.95
2022-11-16T18:24:26.938Z,1035.95
2022-11-16T18:26:55.291Z,1034.28
2022-11-16T18:29:23.523Z,1002.17
2022-11-16T18:31:51.967Z,990.72
2022-11-16T18:34:20.350Z,979.72
2022-11-16T18:36:50.923Z,985.83
2022-11-16T18:39:19.263Z,946.30
2022-11-16T18:41:54.739Z,952.58
2022-11-16T18:44:24.025Z,942.00
2022-11-16T18:46:52.555Z,931.63
2022-11-16T18:49:20.943Z,877.10
2022-11-16T18:51:52.219Z,809.35
2022-11-16T18:54:20.588Z,788.08
2022-11-16T18:56:48.949Z,755.15
2022-11-16T18:59:18.721Z,681.53
2022-11-16T19:01:47.103Z,610.08
2022-11-16T19:04:15.543Z,593.33
2022-11-16T19:06:43.869Z,544.47
2022-11-16T19:09:13.533Z,497.60
2022-11-16T19:11:41.938Z,447.15
2022-11-16T19:14:11.062Z,419.58
2022-11-16T19:16:45.157Z,393.33
2022-11-16T19:19:18.624Z,358.30
2022-11-16T19:21:48.958Z,326.05
2022-11-16T19:24:21.899Z,302.80
2022-11-16T19:26:53.128Z,285.85
2022-11-16T19:29:22.184Z,258.88
2022-11-16T19:31:50.794Z,247.80
2022-11-16T19:34:19.160Z,259.92
2022-11-16T19:36:47.603Z,235.40
2022-11-16T19:39:15.880Z,217.88
2022-11-16T19:41:45.727Z,207.10
2022-11-16T19:44:14.777Z,214.68
2022-11-16T19:46:43.620Z,217.35
2022-11-16T19:49:19.586Z,204.00
2022-11-16T19:51:48.877Z,198.50
2022-11-16T19:54:18.445Z,192.75
2022-11-16T19:56:53.639Z,197.73
2022-11-16T19:59:23.449Z,186.23
2022-11-16T20:01:51.864Z,183.68
2022-11-16T20:04:20.831Z,182.13
2022-11-16T20:06:49.829Z,183.75
2022-11-16T20:09:18.609Z,169.93
2022-11-16T20:11:48.335Z,169.48
2022-11-16T20:14:16.726Z,163.00
2022-11-16T20:16:50.302Z,155.27
2022-11-16T20:19:20.468Z,127.07
2022-11-16T20:21:48.915Z,126.68
2022-11-16T20:24:18.948Z,108.50
2022-11-16T20:26:50.126Z,108.78
2022-11-16T20:29:20.259Z,99.95
2022-11-16T20:31:48.820Z,102.53
2022-11-16T20:34:20.354Z,100.13
2022-11-16T20:36:51.211Z,101.68
2022-11-16T20:39:21.809Z,92.57
2022-11-16T20:41:51.592Z,96.10
2022-11-16T20:44:22.192Z,88.45
2022-11-16T20:46:52.289Z,91.63
2022-11-16T20:49:20.669Z,91.28
2022-11-16T20:51:50.458Z,83.25
2022-11-16T20:54:18.891Z,79.13
2022-11-16T20:56:49.533Z,79.57
2022-11-16T20:59:19.729Z,79.68
2022-11-16T21:01:48.791Z,80.70
2022-11-16T21:04:17.518Z,73.57
2022-11-16T21:06:45.968Z,80.07
2022-11-16T21:09:22.126Z,74.57
2022-11-16T21:12:09.206Z,64.90
2022-11-16T21:14:39.045Z,62.08
2022-11-16T21:17:07.416Z,69.10
2022-11-16T21:19:35.740Z,65.88
2022-11-16T21:22:04.315Z,69.57
2022-11-16T21:24:33.596Z,67.13
2022-11-16T21:27:01.959Z,66.80
2022-11-16T21:29:30.443Z,63.33
2022-11-16T21:32:00.126Z,67.85
2022-11-16T21:34:33.549Z,58.05
2022-11-16T21:37:04.197Z,71.28
2022-11-16T21:39:32.478Z,59.28
2022-11-16T21:42:00.895Z,54.40
2022-11-16T21:44:41.701Z,53.53
2022-11-16T21:47:12.300Z,56.53
2022-11-16T21:50:08.322Z,62.38
2022-11-16T21:52:29.650Z,58.78
2022-11-16T21:55:00.402Z,55.03
2022-11-16T21:57:28.820Z,51.40
2022-11-16T21:59:57.200Z,54.20
2022-11-16T22:02:26.900Z,50.38
2022-11-16T22:05:12.722Z,54.30
2022-11-16T22:07:42.187Z,50.65
2022-11-16T22:10:12.764Z,49.60
2022-11-16T22:12:46.866Z,49.60
2022-11-16T22:15:18.937Z,42.40
2022-11-16T22:17:54.360Z,48.28
2022-11-16T22:20:25.695Z,45.75
2022-11-16T22:22:54.236Z,43.13
2022-11-16T22:25:23.037Z,42.10
2022-11-16T22:28:19.159Z,37.78
2022-11-16T22:30:41.068Z,45.25
2022-11-16T22:33:11.505Z,41.40
2022-11-16T22:35:43.373Z,40.80
2022-11-16T22:38:12.369Z,41.38
2022-11-16T22:40:40.949Z,38.80
2022-11-16T22:43:13.940Z,40.17
2022-11-16T22:45:43.948Z,38.35
2022-11-16T22:48:13.789Z,38.28
2022-11-16T22:50:42.552Z,41.65
2022-11-16T22:53:10.972Z,36.55
2022-11-16T22:55:40.256Z,41.28
2022-11-16T22:58:09.920Z,39.00
2022-11-16T23:00:41.945Z,34.10
2022-11-16T23:03:10.908Z,37.50
2022-11-16T23:05:40.770Z,36.85
2022-11-16T23:08:09.130Z,35.60
2022-11-16T23:10:58.266Z,35.00
2022-11-16T23:13:55.521Z,33.75
2022-11-16T23:48:24.234Z,32.90
2022-11-16T23:50:52.895Z,28.52
2022-11-16T23:53:21.553Z,28.98
2022-11-16T23:55:50.004Z,32.38
2022-11-16T23:58:18.492Z,28.88
